createdAt,value
2022-10-31T00:01:30.707Z,4.93
2022-10-31T00:04:00.768Z,5.77
2022-10-31T00:06:30.957Z,5.50
2022-10-31T00:08:59.637Z,5.17
2022-10-31T00:11:27.679Z,5.40
2022-10-31T00:13:55.348Z,5.23
2022-10-31T00:16:23.689Z,5.47
2022-10-31T00:18:51.598Z,5.03
2022-10-31T00:21:20.927Z,5.97
2022-10-31T00:23:48.619Z,5.60
2022-10-31T00:26:16.267Z,4.90
2022-10-31T00:28:43.930Z,5.10
2022-10-31T00:31:12.349Z,4.93
2022-10-31T00:33:40.475Z,5.23
2022-10-31T00:36:09.088Z,6.30
2022-10-31T00:38:38.089Z,4.50
2022-10-31T00:41:05.869Z,5.37
2022-10-31T00:43:33.507Z,4.67
2022-10-31T00:46:01.131Z,4.93
2022-10-31T00:48:29.182Z,5.27
2022-10-31T00:50:56.968Z,5.60
2022-10-31T00:53:24.648Z,5.40
2022-10-31T00:55:53.681Z,5.20
2022-10-31T00:58:21.352Z,5.57
2022-10-31T01:00:55.839Z,5.67
2022-10-31T01:03:24.213Z,5.17
2022-10-31T01:05:59.410Z,4.67
2022-10-31T01:08:27.239Z,4.90
2022-10-31T01:11:03.519Z,4.93
2022-10-31T01:13:31.254Z,5.20
2022-10-31T01:15:59.313Z,5.43
2022-10-31T01:18:27.233Z,6.23
2022-10-31T01:21:02.104Z,6.03
2022-10-31T01:23:30.324Z,4.93
2022-10-31T01:26:03.508Z,5.97
2022-10-31T01:28:31.173Z,6.30
2022-10-31T01:31:02.305Z,5.03
2022-10-31T01:33:30.159Z,4.77
2022-10-31T01:35:58.065Z,5.80
2022-10-31T01:38:25.795Z,5.23
2022-10-31T01:40:53.687Z,6.20
2022-10-31T01:43:22.765Z,5.37
2022-10-31T01:45:53.099Z,5.53
2022-10-31T01:48:22.148Z,5.63
2022-10-31T01:50:50.754Z,6.53
2022-10-31T01:53:21.761Z,5.00
2022-10-31T01:55:53.536Z,5.33
2022-10-31T01:58:24.953Z,5.90
2022-10-31T02:00:54.157Z,5.63
2022-10-31T02:03:22.309Z,5.13
2022-10-31T02:05:53.597Z,5.97
2022-10-31T02:08:23.814Z,5.17
2022-10-31T02:10:51.609Z,4.93
2022-10-31T02:13:19.669Z,5.47
2022-10-31T02:15:51.218Z,5.13
2022-10-31T02:18:19.464Z,5.80
2022-10-31T02:20:51.317Z,5.30
2022-10-31T02:23:30.205Z,5.30
2022-10-31T02:26:15.709Z,6.13
2022-10-31T02:28:53.892Z,5.13
2022-10-31T02:31:28.941Z,5.20
2022-10-31T02:33:59.932Z,5.67
2022-10-31T02:36:29.865Z,5.60
2022-10-31T02:39:02.999Z,5.93
2022-10-31T02:41:34.712Z,6.30
2022-10-31T02:44:04.373Z,5.60
2022-10-31T02:46:35.390Z,5.60
2022-10-31T02:49:05.344Z,5.07
2022-10-31T02:51:32.994Z,5.23
2022-10-31T02:54:00.630Z,5.83
2022-10-31T02:56:30.289Z,5.57
2022-10-31T02:59:00.763Z,5.40
2022-10-31T03:01:41.757Z,5.70
2022-10-31T03:04:18.633Z,6.03
2022-10-31T03:06:48.085Z,5.70
2022-10-31T03:09:21.138Z,5.13
2022-10-31T03:11:55.206Z,6.07
2022-10-31T03:14:26.766Z,5.87
2022-10-31T03:16:59.617Z,5.50
2022-10-31T03:19:29.361Z,5.53
2022-10-31T03:22:00.215Z,5.70
2022-10-31T03:24:29.715Z,6.87
2022-10-31T03:26:59.191Z,5.67
2022-10-31T03:29:28.810Z,5.40
2022-10-31T03:31:59.692Z,5.13
2022-10-31T03:34:30.175Z,5.30
2022-10-31T03:37:01.665Z,5.53
2022-10-31T03:39:30.520Z,6.00
2022-10-31T03:42:02.030Z,5.07
2022-10-31T03:44:31.593Z,5.73
2022-10-31T03:47:01.202Z,4.73
2022-10-31T03:49:29.675Z,5.47
2022-10-31T03:51:59.296Z,4.93
2022-10-31T03:54:29.386Z,5.30
2022-10-31T03:57:01.017Z,5.70
2022-10-31T03:59:31.163Z,4.97
2022-10-31T04:02:04.624Z,5.33
2022-10-31T04:04:32.718Z,5.27
2022-10-31T04:07:03.735Z,4.90
2022-10-31T04:09:33.506Z,5.50
2022-10-31T04:12:02.203Z,6.23
2022-10-31T04:14:31.890Z,5.60
2022-10-31T04:17:01.751Z,5.30
2022-10-31T04:19:32.384Z,5.10
2022-10-31T04:22:03.364Z,5.77
2022-10-31T04:24:31.013Z,5.27
2022-10-31T04:26:59.828Z,6.57
2022-10-31T04:29:29.404Z,6.53
2022-10-31T04:31:57.041Z,4.87
2022-10-31T04:34:26.190Z,5.43
2022-10-31T04:36:53.823Z,5.50
2022-10-31T04:39:24.310Z,5.30
2022-10-31T04:41:54.466Z,6.40
2022-10-31T04:44:22.095Z,5.57
2022-10-31T04:46:49.757Z,6.63
2022-10-31T04:49:17.399Z,5.87
2022-10-31T04:51:46.401Z,5.50
2022-10-31T04:54:14.036Z,5.97
2022-10-31T04:56:41.674Z,6.23
2022-10-31T04:59:09.281Z,6.87
2022-10-31T05:01:37.127Z,6.10
2022-10-31T05:04:05.027Z,6.57
2022-10-31T05:06:32.678Z,5.40
2022-10-31T05:09:01.824Z,6.30
2022-10-31T05:11:29.482Z,6.23
2022-10-31T05:13:57.101Z,6.30
2022-10-31T05:16:24.729Z,6.27
2022-10-31T05:18:52.353Z,6.10
2022-10-31T05:21:19.992Z,6.17
2022-10-31T05:23:48.661Z,7.30
2022-10-31T05:26:17.847Z,5.53
2022-10-31T05:28:45.495Z,6.90
2022-10-31T05:31:13.184Z,6.30
2022-10-31T05:33:40.826Z,6.47
2022-10-31T05:36:08.697Z,5.93
2022-10-31T05:38:36.382Z,6.40
2022-10-31T05:41:04.006Z,6.30
2022-10-31T05:43:33.015Z,6.07
2022-10-31T05:46:03.823Z,6.50
2022-10-31T05:48:34.094Z,7.67
2022-10-31T05:51:03.795Z,7.90
2022-10-31T05:53:31.698Z,6.70
2022-10-31T05:55:59.370Z,7.37
2022-10-31T05:58:27.025Z,6.53
2022-10-31T06:00:56.420Z,6.70
2022-10-31T06:03:24.250Z,5.80
2022-10-31T06:05:55.035Z,6.37
2022-10-31T06:08:23.174Z,6.30
2022-10-31T06:10:50.874Z,6.47
2022-10-31T06:13:18.518Z,6.37
2022-10-31T06:15:46.149Z,6.70
2022-10-31T06:18:15.179Z,6.70
2022-10-31T06:20:42.788Z,7.57
2022-10-31T06:23:10.430Z,7.90
2022-10-31T06:25:38.090Z,7.03
2022-10-31T06:28:05.903Z,7.00
2022-10-31T06:30:33.749Z,7.10
2022-10-31T06:33:07.214Z,6.97
2022-10-31T06:35:36.253Z,6.47
2022-10-31T06:38:06.730Z,6.87
2022-10-31T06:40:34.460Z,7.00
2022-10-31T06:43:02.545Z,6.47
2022-10-31T06:45:30.562Z,6.47
2022-10-31T06:48:17.695Z,6.83
2022-10-31T06:50:47.372Z,6.50
2022-10-31T06:53:15.366Z,6.03
2022-10-31T06:55:43.361Z,6.80
2022-10-31T06:58:11.787Z,5.87
2022-10-31T07:00:39.464Z,5.70
2022-10-31T07:03:08.554Z,7.10
2022-10-31T07:05:36.282Z,6.60
2022-10-31T07:08:06.148Z,6.77
2022-10-31T07:10:37.458Z,6.17
2022-10-31T07:13:10.717Z,6.03
2022-10-31T07:15:39.187Z,6.53
2022-10-31T07:18:07.604Z,5.80
2022-10-31T07:20:35.301Z,6.43
2022-10-31T07:23:03.236Z,5.97
2022-10-31T07:25:32.505Z,6.17
2022-10-31T07:28:03.230Z,6.30
2022-10-31T07:30:31.027Z,6.37
2022-10-31T07:32:59.077Z,6.80
2022-10-31T07:35:29.573Z,6.87
2022-10-31T07:38:00.072Z,6.97
2022-10-31T07:40:27.940Z,6.57
2022-10-31T07:42:56.964Z,7.17
2022-10-31T07:45:24.549Z,6.20
2022-10-31T07:47:53.147Z,6.93
2022-10-31T07:50:21.396Z,6.77
2022-10-31T07:52:49.043Z,6.23
2022-10-31T07:55:16.842Z,7.00
2022-10-31T07:57:44.490Z,6.50
2022-10-31T08:00:14.230Z,7.23
2022-10-31T08:02:41.852Z,7.97
2022-10-31T08:05:09.577Z,7.27
2022-10-31T08:07:38.278Z,6.73
2022-10-31T08:10:06.338Z,7.20
2022-10-31T08:12:33.971Z,7.47
2022-10-31T08:15:01.671Z,6.60
2022-10-31T08:17:30.985Z,6.90
2022-10-31T08:19:59.661Z,7.03
2022-10-31T08:22:27.427Z,6.07
2022-10-31T08:24:55.044Z,6.70
2022-10-31T08:27:22.697Z,7.20
2022-10-31T08:29:50.359Z,7.73
2022-10-31T08:32:18.058Z,7.07
2022-10-31T08:34:47.119Z,6.53
2022-10-31T08:37:19.738Z,6.53
2022-10-31T08:39:47.752Z,7.33
2022-10-31T08:42:15.406Z,6.90
2022-10-31T08:44:43.027Z,6.37
2022-10-31T08:47:10.714Z,6.30
2022-10-31T08:49:38.355Z,6.23
2022-10-31T08:52:10.691Z,5.70
2022-10-31T08:54:41.895Z,7.27
2022-10-31T08:57:09.560Z,6.33
2022-10-31T08:59:37.201Z,6.17
2022-10-31T09:02:04.976Z,6.43
2022-10-31T09:04:32.657Z,7.10
2022-10-31T09:09:52.504Z,6.17
2022-10-31T09:12:20.164Z,5.87
2022-10-31T09:14:47.802Z,5.70
2022-10-31T09:17:15.423Z,5.87
2022-10-31T09:19:43.068Z,5.60
2022-10-31T09:22:10.699Z,5.00
2022-10-31T09:24:38.351Z,5.40
2022-10-31T09:27:07.734Z,5.60
2022-10-31T09:29:35.371Z,5.13
2022-10-31T09:32:03.042Z,5.27
2022-10-31T09:34:30.688Z,5.20
2022-10-31T09:36:58.577Z,5.60
2022-10-31T09:39:26.231Z,5.70
2022-10-31T09:42:02.474Z,5.43
2022-10-31T09:44:40.004Z,4.87
2022-10-31T09:47:11.561Z,5.67
2022-10-31T09:49:49.720Z,5.27
2022-10-31T09:52:21.113Z,5.17
2022-10-31T09:54:51.186Z,4.87
2022-10-31T09:57:21.856Z,5.33
2022-10-31T09:59:51.462Z,5.70
2022-10-31T10:02:21.841Z,5.90
2022-10-31T10:04:53.913Z,5.60
2022-10-31T10:07:25.376Z,4.53
2022-10-31T10:09:53.044Z,3.80
2022-10-31T10:12:25.604Z,4.30
2022-10-31T10:15:02.010Z,4.53
2022-10-31T10:17:35.619Z,4.00
2022-10-31T10:20:24.291Z,3.33
2022-10-31T10:22:54.748Z,3.50
2022-10-31T10:25:24.315Z,3.20
2022-10-31T10:27:56.814Z,4.23
2022-10-31T10:30:30.910Z,3.30
2022-10-31T10:32:59.754Z,3.60
2022-10-31T10:35:29.981Z,3.00
2022-10-31T10:38:01.114Z,3.33
2022-10-31T10:40:32.786Z,3.33
2022-10-31T10:43:23.069Z,2.50
2022-10-31T10:46:32.197Z,3.40
2022-10-31T10:49:05.899Z,3.47
2022-10-31T10:54:35.875Z,2.73
2022-10-31T10:57:09.213Z,2.80
2022-10-31T10:59:37.185Z,2.67
2022-10-31T11:02:17.551Z,2.93
2022-10-31T11:04:45.373Z,3.23
2022-10-31T11:07:13.669Z,2.77
2022-10-31T11:09:41.303Z,2.33
2022-10-31T11:12:10.031Z,3.20
2022-10-31T11:14:39.421Z,2.87
2022-10-31T11:17:13.080Z,3.97
2022-10-31T11:19:40.843Z,2.80
2022-10-31T11:22:09.759Z,3.30
2022-10-31T11:24:42.139Z,2.73
2022-10-31T11:27:15.023Z,3.80
2022-10-31T11:29:42.810Z,3.73
2022-10-31T11:32:18.782Z,2.77
2022-10-31T11:34:47.367Z,3.33
2022-10-31T11:37:17.172Z,2.77
2022-10-31T11:39:45.988Z,2.90
2022-10-31T11:42:13.946Z,3.33
2022-10-31T11:44:44.526Z,2.93
2022-10-31T11:47:15.703Z,2.87
2022-10-31T11:49:44.245Z,3.83
2022-10-31T11:52:15.344Z,2.97
2022-10-31T11:54:44.605Z,3.00
2022-10-31T11:57:24.047Z,3.30
2022-10-31T11:59:53.622Z,3.20
2022-10-31T12:02:23.030Z,2.67
2022-10-31T12:04:53.597Z,3.53
2022-10-31T12:07:21.479Z,2.80
2022-10-31T12:09:49.158Z,2.97
2022-10-31T12:12:36.873Z,2.73
2022-10-31T12:15:15.064Z,2.87
2022-10-31T12:17:46.789Z,3.07
2022-10-31T12:20:23.915Z,3.57
2022-10-31T12:22:56.514Z,2.97
2022-10-31T12:25:30.403Z,3.17
2022-10-31T12:28:05.456Z,3.17
2022-10-31T12:30:38.863Z,3.17
2022-10-31T12:33:16.642Z,2.60
2022-10-31T12:35:51.036Z,3.10
2022-10-31T12:38:32.285Z,2.60
2022-10-31T12:41:08.046Z,2.70
2022-10-31T12:43:38.755Z,3.03
2022-10-31T12:46:09.357Z,3.43
2022-10-31T12:48:50.058Z,2.90
2022-10-31T12:51:24.868Z,3.03
2022-10-31T12:54:00.228Z,2.70
2022-10-31T12:56:32.774Z,2.77
2022-10-31T12:59:03.162Z,2.63
2022-10-31T13:01:32.702Z,2.50
2022-10-31T13:04:04.183Z,2.87
2022-10-31T13:06:34.334Z,3.03
2022-10-31T13:09:03.738Z,2.87
2022-10-31T13:11:33.238Z,3.00
2022-10-31T13:14:03.864Z,2.80
2022-10-31T13:16:32.841Z,2.60
2022-10-31T13:19:05.304Z,2.03
2022-10-31T13:21:37.008Z,2.07
2022-10-31T13:24:06.795Z,2.07
2022-10-31T13:26:37.925Z,2.47
2022-10-31T13:29:08.931Z,2.53
2022-10-31T13:31:36.581Z,2.70
2022-10-31T13:34:07.308Z,3.50
2022-10-31T13:36:41.630Z,2.60
2022-10-31T13:39:16.418Z,2.57
2022-10-31T13:41:46.842Z,2.57
2022-10-31T13:44:16.855Z,2.53
2022-10-31T13:46:44.972Z,2.73
2022-10-31T13:49:42.530Z,2.80
2022-10-31T13:52:16.237Z,2.50
2022-10-31T13:54:44.710Z,3.50
2022-10-31T13:57:18.098Z,3.37
2022-10-31T13:59:50.230Z,3.10
2022-10-31T14:02:19.004Z,2.93
2022-10-31T14:04:48.850Z,3.33
2022-10-31T14:07:18.762Z,4.30
2022-10-31T14:09:55.223Z,3.10
2022-10-31T14:12:26.500Z,3.37
2022-10-31T14:14:56.924Z,2.87
2022-10-31T14:17:25.926Z,2.90
2022-10-31T14:20:04.780Z,3.27
2022-10-31T14:22:37.430Z,3.73
2022-10-31T14:25:23.938Z,3.83
2022-10-31T14:27:53.054Z,3.37
2022-10-31T14:30:23.450Z,3.37
2022-10-31T14:32:55.318Z,3.37
2022-10-31T14:35:26.593Z,3.00
2022-10-31T14:38:18.255Z,3.50
2022-10-31T14:40:54.362Z,2.87
2022-10-31T14:43:29.644Z,3.53
2022-10-31T14:46:01.359Z,3.77
2022-10-31T14:48:38.236Z,4.23
2022-10-31T14:51:10.814Z,3.70
2022-10-31T14:53:45.698Z,3.07
2022-10-31T14:56:13.760Z,3.77
2022-10-31T14:58:43.775Z,3.97
2022-10-31T15:01:20.137Z,4.50
2022-10-31T15:04:17.801Z,3.30
2022-10-31T15:06:41.458Z,3.30
2022-10-31T15:09:24.454Z,4.10
2022-10-31T15:11:52.137Z,3.27
2022-10-31T15:14:23.750Z,3.90
2022-10-31T15:16:51.762Z,3.20
2022-10-31T15:19:22.916Z,3.63
2022-10-31T15:21:52.476Z,3.73
2022-10-31T15:24:20.434Z,3.87
2022-10-31T15:26:50.107Z,3.30
2022-10-31T15:29:19.096Z,3.53
2022-10-31T15:31:53.043Z,3.63
2022-10-31T15:34:23.269Z,3.43
2022-10-31T15:36:51.129Z,3.23
2022-10-31T15:39:18.918Z,3.13
2022-10-31T15:41:54.447Z,4.13
2022-10-31T15:44:24.604Z,4.07
2022-10-31T15:46:56.300Z,3.50
2022-10-31T15:49:32.765Z,3.57
2022-10-31T15:52:11.849Z,3.57
2022-10-31T15:54:44.907Z,3.70
2022-10-31T15:57:14.295Z,3.73
2022-10-31T15:59:44.541Z,3.10
2022-10-31T16:02:13.977Z,3.73
2022-10-31T16:04:50.313Z,3.20
2022-10-31T16:07:23.185Z,4.13
2022-10-31T16:09:52.438Z,4.10
2022-10-31T16:12:22.774Z,4.17
2022-10-31T16:14:51.144Z,3.97
2022-10-31T16:17:22.012Z,4.13
2022-10-31T16:19:53.004Z,4.07
2022-10-31T16:22:26.334Z,3.40
2022-10-31T16:24:56.049Z,3.10
2022-10-31T16:27:28.109Z,3.80
2022-10-31T16:29:57.184Z,3.17
2022-10-31T16:32:32.160Z,4.23
2022-10-31T16:35:04.309Z,3.30
2022-10-31T16:37:31.944Z,3.57
2022-10-31T16:40:02.406Z,3.80
2022-10-31T16:42:31.636Z,3.67
2022-10-31T16:45:02.364Z,3.87
2022-10-31T16:47:30.255Z,4.17
2022-10-31T16:50:01.028Z,3.20
2022-10-31T16:52:38.049Z,3.57
2022-10-31T16:55:15.873Z,4.30
2022-10-31T16:57:46.887Z,3.87
2022-10-31T17:00:15.611Z,3.43
2022-10-31T17:02:43.848Z,3.43
2022-10-31T17:05:13.570Z,3.20
2022-10-31T17:07:41.214Z,3.70
2022-10-31T17:10:09.344Z,3.67
2022-10-31T17:12:37.476Z,4.13
2022-10-31T17:15:07.223Z,3.30
2022-10-31T17:17:34.865Z,3.10
2022-10-31T17:20:02.560Z,4.00
2022-10-31T17:22:30.602Z,3.30
2022-10-31T17:24:58.628Z,3.53
2022-10-31T17:27:26.298Z,3.33
2022-10-31T17:29:53.938Z,3.37
2022-10-31T17:32:22.949Z,3.27
2022-10-31T17:34:50.700Z,3.87
2022-10-31T17:37:18.318Z,3.37
2022-10-31T17:39:45.993Z,3.70
2022-10-31T17:42:13.627Z,3.10
2022-10-31T17:44:41.264Z,3.27
2022-10-31T17:47:08.911Z,3.43
2022-10-31T17:49:38.193Z,4.03
2022-10-31T17:52:06.150Z,3.33
2022-10-31T17:54:33.782Z,3.07
2022-10-31T17:57:01.450Z,3.57
2022-10-31T17:59:30.198Z,3.60
2022-10-31T18:01:58.316Z,4.20
2022-10-31T18:04:26.263Z,3.40
2022-10-31T18:06:55.311Z,3.60
2022-10-31T18:09:22.987Z,3.67
2022-10-31T18:11:50.641Z,3.73
2022-10-31T18:14:18.305Z,3.70
2022-10-31T18:16:45.963Z,3.40
2022-10-31T18:19:14.249Z,3.57
2022-10-31T18:21:41.991Z,4.07
2022-10-31T18:24:11.355Z,3.60
2022-10-31T18:26:39.547Z,4.13
2022-10-31T18:29:07.224Z,3.57
2022-10-31T18:31:34.925Z,3.70
2022-10-31T18:34:02.563Z,4.23
2022-10-31T18:36:30.362Z,3.40
2022-10-31T18:38:58.283Z,3.60
2022-10-31T18:41:27.462Z,3.60
2022-10-31T18:43:59.846Z,4.33
2022-10-31T18:46:27.966Z,3.73
2022-10-31T18:49:02.616Z,3.23
2022-10-31T18:51:30.505Z,3.87
2022-10-31T18:54:00.723Z,3.47
2022-10-31T18:56:31.613Z,3.80
2022-10-31T18:59:02.047Z,4.27
2022-10-31T19:01:30.641Z,4.20
2022-10-31T19:04:00.697Z,4.17
2022-10-31T19:06:30.954Z,4.10
2022-10-31T19:08:59.568Z,3.30
2022-10-31T19:11:27.400Z,4.67
2022-10-31T19:13:58.020Z,3.60
2022-10-31T19:16:26.048Z,3.87
2022-10-31T19:18:55.075Z,4.30
2022-10-31T19:21:23.178Z,4.23
2022-10-31T19:23:52.782Z,3.77
2022-10-31T19:26:20.487Z,3.80
2022-10-31T19:28:48.261Z,3.70
2022-10-31T19:31:18.251Z,4.00
2022-10-31T19:33:45.891Z,3.20
2022-10-31T19:36:14.293Z,3.23
2022-10-31T19:38:42.478Z,3.37
2022-10-31T19:41:11.150Z,3.77
2022-10-31T19:43:39.149Z,5.20
2022-10-31T19:46:09.037Z,4.60
2022-10-31T19:48:40.858Z,5.03
2022-10-31T19:51:09.392Z,4.87
2022-10-31T19:53:37.362Z,4.93
2022-10-31T19:56:05.436Z,4.30
2022-10-31T19:58:33.286Z,3.93
2022-10-31T20:01:01.034Z,4.10
2022-10-31T20:03:29.073Z,3.97
2022-10-31T20:05:58.181Z,3.73
2022-10-31T20:08:25.802Z,3.80
2022-10-31T20:10:57.046Z,3.30
2022-10-31T20:13:25.169Z,3.50
2022-10-31T20:15:53.075Z,3.87
2022-10-31T20:18:20.754Z,4.00
2022-10-31T20:20:49.267Z,3.40
2022-10-31T20:23:18.369Z,3.63
2022-10-31T20:25:49.176Z,3.57
2022-10-31T20:28:16.812Z,3.23
2022-10-31T20:30:44.876Z,3.63
2022-10-31T20:33:12.611Z,3.63
2022-10-31T20:35:40.630Z,3.50
2022-10-31T20:38:08.292Z,3.40
2022-10-31T20:40:37.527Z,3.20
2022-10-31T20:43:05.473Z,4.20
2022-10-31T20:45:33.782Z,4.20
2022-10-31T20:48:01.839Z,3.90
2022-10-31T20:50:30.854Z,3.50
2022-10-31T20:52:58.934Z,3.47
2022-10-31T20:55:26.853Z,4.43
2022-10-31T20:57:55.898Z,3.27
2022-10-31T21:00:24.286Z,3.30
2022-10-31T21:02:51.987Z,3.83
2022-10-31T21:05:19.657Z,3.70
2022-10-31T21:07:47.299Z,3.70
2022-10-31T21:10:17.949Z,4.37
2022-10-31T21:12:46.007Z,4.70
2022-10-31T21:15:15.440Z,3.27
2022-10-31T21:17:43.086Z,4.33
2022-10-31T21:20:11.454Z,3.90
2022-10-31T21:22:39.163Z,4.03
2022-10-31T21:25:07.232Z,3.30
2022-10-31T21:27:34.935Z,3.80
2022-10-31T21:30:02.933Z,4.23
2022-10-31T21:32:31.973Z,3.87
2022-10-31T21:35:00.122Z,4.00
2022-10-31T21:37:27.979Z,3.77
2022-10-31T21:39:55.602Z,3.60
2022-10-31T21:42:23.589Z,3.73
2022-10-31T21:44:53.625Z,3.63
2022-10-31T21:47:21.445Z,3.17
2022-10-31T21:49:50.467Z,3.70
2022-10-31T21:52:18.162Z,4.20
2022-10-31T21:54:44.864Z,3.80
2022-10-31T21:57:12.545Z,3.40
2022-10-31T21:59:41.332Z,3.10
2022-10-31T22:02:10.187Z,2.90
2022-10-31T22:04:37.865Z,3.20
2022-10-31T22:07:06.887Z,3.30
2022-10-31T22:09:34.647Z,3.53
2022-10-31T22:12:06.599Z,4.00
2022-10-31T22:14:34.358Z,3.87
2022-10-31T22:17:02.186Z,4.23
2022-10-31T22:19:30.380Z,3.53
2022-10-31T22:21:58.178Z,3.63
2022-10-31T22:24:27.315Z,4.23
2022-10-31T22:26:54.958Z,3.97
2022-10-31T22:29:26.096Z,4.40
2022-10-31T22:31:59.536Z,3.33
2022-10-31T22:34:28.290Z,3.73
2022-10-31T22:36:56.193Z,4.37
2022-10-31T22:39:23.835Z,3.77
2022-10-31T22:41:52.905Z,4.20
2022-10-31T22:44:20.544Z,3.60
2022-10-31T22:46:48.274Z,4.07
2022-10-31T22:49:16.504Z,3.97
2022-10-31T22:51:44.712Z,4.50
2022-10-31T22:54:13.933Z,3.80
2022-10-31T22:56:41.584Z,4.20
2022-10-31T22:59:12.225Z,4.17
2022-10-31T23:01:39.943Z,4.27
2022-10-31T23:04:07.782Z,3.63
2022-10-31T23:06:35.444Z,5.17
2022-10-31T23:09:04.213Z,4.23
2022-10-31T23:11:33.680Z,4.00
2022-10-31T23:14:10.641Z,4.23
2022-10-31T23:16:42.414Z,4.07
2022-10-31T23:19:10.457Z,4.20
2022-10-31T23:21:59.379Z,4.27
2022-10-31T23:24:29.100Z,4.70
2022-10-31T23:27:11.525Z,3.63
2022-10-31T23:29:44.409Z,4.10
2022-10-31T23:32:15.740Z,4.23
2022-10-31T23:34:43.729Z,4.00
2022-10-31T23:37:11.522Z,4.43
2022-10-31T23:39:39.189Z,4.50
2022-10-31T23:42:07.009Z,3.50
2022-10-31T23:44:34.657Z,4.03
2022-10-31T23:47:02.353Z,4.13
2022-10-31T23:49:31.682Z,3.40
2022-10-31T23:51:59.474Z,2.30
2022-10-31T23:54:27.905Z,2.40
2022-10-31T23:56:56.002Z,3.13
2022-10-31T23:59:23.972Z,2.40
